TFM - Tactical Decision Aid
ID: Runway Winds: CIG/VIS Threshold:

KGSO - Greensboro Intl, NC, US

Updated at: 0805 UTC 18 Sep 2021
Latest TAF at: 0527 UTC 18 Sep 2021

TAF Board

Time0754Z 18/09Z 18/10Z 18/11Z 18/12Z 18/13Z 18/14Z 18/15Z 18/16Z 18/17Z 18/18Z 18/19Z 18/20Z 18/21Z>>
Type OBS PRVL
  [TEMP]  
PRVL
  [TEMP]  
PRVL
  [TEMP]  
PRVL
  [TEMP]  
PRVL PRVL PRVL PRVL PRVL PRVL PRVL PRVL PRVL
VIS 10 >6
  [3]  
>6
  [3]  
>6
  [3]  
>6
  [3]  
>6 >6 >6 >6 >6 >6 >6 >6 >6
CIG -- --
  [6]  
--
  [6]  
--
  [6]  
--
  [6]  
250 250 250 250 40 40 40 40 40
Cover FEW SCT
  [BKN]  
SCT
  [BKN]  
SCT
  [BKN]  
SCT
  [BKN]  
BKN BKN BKN BKN BKN BKN BKN BKN BKN
FltCat VFR VFR
  [IFR]  
VFR
  [IFR]  
VFR
  [IFR]  
VFR
  [IFR]  
VFR VFR VFR VFR VFR VFR VFR VFR VFR
WX -- --
  [BR]  
--
  [BR]  
--
  [BR]  
--
  [BR]  
-- -- -- -- -- -- -- -- --
WDir VRB 360
[360]
360
[360]
360
[360]
360
[360]
30 30 30 30 60 60 60 60 60
WSpd 0 3
  [3]  
3
  [3]  
3
  [3]  
3
  [3]  
3 3 3 3 5 5 5 5 5
WGst -- --
  [--]  
--
  [--]  
--
  [--]  
--
  [--]  
-- -- -- -- -- -- -- -- --

TDA Impact Legend

  None Marginal Slight Moderate High
Visibility (sm) >5 2.9≤X≤5 0.9≤X<2.9 <0.9
Ceiling (100 ft) >30 9.9≤X≤30 4.9≤X<9.9 <4.9
Wind Speed (kt) <15 15≤X<25 25≤X<30 ≥30
Wind Gust (kt) <15 15≤X<25 25≤X<35 ≥35
Weather No Wx Reported VCTS -TS,-FZRA TS,FZRA +TS,+FZRA
TAF
KGSO 180527Z 1806/1906 36003KT P6SM SCT050
  TEMPO 1809/1813 3SM BR BKN006
  FM181300 03003KT P6SM SCT010 SCT090 BKN250
  FM181700 06005KT P6SM BKN040 BKN250


METAR
KGSO 180754Z 00000KT 10SM FEW250 21/19 A3014 RMK AO2 SLP194 T02060194
KGSO 180654Z 00000KT 10SM FEW250 21/19 A3013 RMK AO2 SLP193 T02060194
KGSO 180554Z 33003KT 10SM FEW049 FEW250 22/20 A3014 RMK AO2 SLP194 T02170200 10244 20217 55005
KGSO 180454Z 36003KT 10SM FEW049 FEW250 22/20 A3014 RMK AO2 SLP194 T02220200 402830211

Radar Display
Forecast Discussion